Time;durP1;ratioP1;P1;durP2;ratioP2;P2;SDS_P1;SDS_P2;PMS_P1;PMS_P2;Temp;Humidity;BMP_temperature;BMP_pressure;BME280_temperature;BME280_humidity;BME280_pressure;Samples;Min_cycle;Max_cycle;Signal;HPM_P1;HPM_P2
2022/03/01 00:02:15;;;;;;;9.07;6.50;;;;;;;;;;5027913;28;20405;-90
2022/03/01 00:04:42;;;;;;;10.02;6.65;;;;;;;;;;5026671;28;20401;-90
2022/03/01 00:07:08;;;;;;;9.97;6.70;;;;;;;;;;5028371;28;20397;-91
2022/03/01 00:09:35;;;;;;;12.02;7.53;;;;;;;;;;5029530;28;20887;-90
2022/03/01 00:12:02;;;;;;;12.80;7.47;;;;;;;;;;5028677;28;20401;-91
2022/03/01 00:14:29;;;;;;;10.07;6.70;;;;;;;;;;5034890;28;20814;-91
2022/03/01 00:16:56;;;;;;;9.65;6.35;;;;;;;;;;5029152;28;20429;-88
2022/03/01 00:19:27;;;;;;;9.57;6.50;;;;;;;;;;5033385;28;20416;-90
2022/03/01 00:21:54;;;;;;;10.73;6.60;;;;;;;;;;5046258;28;20413;-91
2022/03/01 00:24:21;;;;;;;10.85;6.85;;;;;;;;;;5034537;28;20409;-92
2022/03/01 00:26:48;;;;;;;11.30;7.18;;;;;;;;;;5028420;28;20812;-92
2022/03/01 00:29:15;;;;;;;10.25;6.68;;;;;;;;;;5028171;28;20412;-92
2022/03/01 00:31:41;;;;;;;10.90;6.97;;;;;;;;;;5036444;28;20473;-91
2022/03/01 00:34:08;;;;;;;9.32;6.57;;;;;;;;;;5030190;28;20424;-91
2022/03/01 00:36:37;;;;;;;11.20;6.28;;;;;;;;;;5028660;28;20463;-91
2022/03/01 00:39:04;;;;;;;11.43;6.75;;;;;;;;;;5023786;28;20433;-91
2022/03/01 00:41:30;;;;;;;8.90;6.43;;;;;;;;;;5035813;28;20409;-91
2022/03/01 00:43:57;;;;;;;11.57;6.97;;;;;;;;;;5035481;28;20449;-91
2022/03/01 00:46:26;;;;;;;9.60;6.53;;;;;;;;;;5033635;28;20405;-91
2022/03/01 00:48:53;;;;;;;10.57;6.60;;;;;;;;;;5031963;28;20830;-91
2022/03/01 00:51:20;;;;;;;10.20;6.80;;;;;;;;;;5038430;28;20464;-91
2022/03/01 00:53:48;;;;;;;9.00;6.20;;;;;;;;;;5035555;28;20451;-90
2022/03/01 00:56:15;;;;;;;10.15;6.43;;;;;;;;;;5038233;28;20415;-92
2022/03/01 00:58:41;;;;;;;11.60;6.63;;;;;;;;;;5031332;28;20884;-91
2022/03/01 01:01:08;;;;;;;9.73;6.50;;;;;;;;;;5035848;28;20408;-92
2022/03/01 01:03:36;;;;;;;8.70;6.20;;;;;;;;;;5028189;28;20429;-91
2022/03/01 01:06:02;;;;;;;9.32;6.47;;;;;;;;;;5040074;28;20406;-91
2022/03/01 01:08:29;;;;;;;9.13;6.37;;;;;;;;;;5033014;28;20496;-90
2022/03/01 01:10:57;;;;;;;10.38;6.65;;;;;;;;;;5035413;28;20408;-91
2022/03/01 01:13:24;;;;;;;10.43;6.90;;;;;;;;;;5032199;28;20405;-91
2022/03/01 01:15:51;;;;;;;11.75;7.43;;;;;;;;;;5032239;28;21149;-90
2022/03/01 01:18:18;;;;;;;11.48;6.75;;;;;;;;;;5028670;28;20484;-91
2022/03/01 01:20:45;;;;;;;10.23;6.88;;;;;;;;;;5036674;28;20417;-91
2022/03/01 01:23:12;;;;;;;10.93;7.23;;;;;;;;;;5027581;28;20405;-91
2022/03/01 01:25:39;;;;;;;10.27;6.50;;;;;;;;;;5032459;28;20406;-91
2022/03/01 01:28:07;;;;;;;10.98;7.50;;;;;;;;;;5038624;28;20406;-90
2022/03/01 01:30:35;;;;;;;10.95;7.28;;;;;;;;;;5027277;28;20413;-90
2022/03/01 01:33:03;;;;;;;11.00;7.03;;;;;;;;;;5040106;28;20402;-91
2022/03/01 01:35:31;;;;;;;11.77;7.60;;;;;;;;;;5036502;28;20607;-91
2022/03/01 01:37:59;;;;;;;10.15;7.15;;;;;;;;;;5034292;28;20883;-91
2022/03/01 01:40:29;;;;;;;11.20;7.38;;;;;;;;;;5033753;28;20432;-90
2022/03/01 01:42:57;;;;;;;10.70;7.28;;;;;;;;;;5033737;28;20403;-91
2022/03/01 01:45:27;;;;;;;11.98;7.70;;;;;;;;;;5030499;28;20408;-91
2022/03/01 01:47:54;;;;;;;11.80;7.72;;;;;;;;;;5031336;28;20963;-91
2022/03/01 01:50:22;;;;;;;12.90;8.20;;;;;;;;;;5031678;28;20854;-90
2022/03/01 01:52:50;;;;;;;12.73;7.68;;;;;;;;;;5035119;28;20755;-91
2022/03/01 01:55:19;;;;;;;11.27;7.65;;;;;;;;;;5026643;28;20428;-91
2022/03/01 01:57:47;;;;;;;11.82;7.47;;;;;;;;;;5027020;28;20398;-90
2022/03/01 02:00:14;;;;;;;11.32;8.27;;;;;;;;;;5035116;28;20420;-90
2022/03/01 02:02:43;;;;;;;12.20;7.50;;;;;;;;;;5030726;28;20463;-89
2022/03/01 02:05:10;;;;;;;11.18;7.70;;;;;;;;;;5028284;28;20451;-89
2022/03/01 02:07:38;;;;;;;12.23;7.72;;;;;;;;;;5030792;28;20455;-91
2022/03/01 02:10:07;;;;;;;12.95;7.82;;;;;;;;;;5022589;28;20417;-91
2022/03/01 02:12:34;;;;;;;10.52;7.72;;;;;;;;;;5027439;28;20432;-91
2022/03/01 02:15:02;;;;;;;11.68;7.97;;;;;;;;;;5036554;28;20570;-90
2022/03/01 02:17:30;;;;;;;11.98;7.68;;;;;;;;;;5029843;28;20410;-89
2022/03/01 02:19:58;;;;;;;12.52;7.78;;;;;;;;;;5028462;28;20429;-91
2022/03/01 02:22:33;;;;;;;13.90;8.38;;;;;;;;;;5034632;28;20532;-91
2022/03/01 02:25:00;;;;;;;13.10;8.27;;;;;;;;;;5013894;28;21041;-92
2022/03/01 02:27:27;;;;;;;12.38;8.00;;;;;;;;;;5034065;28;20403;-90
2022/03/01 02:29:54;;;;;;;11.35;7.97;;;;;;;;;;5027942;28;20471;-91
2022/03/01 02:32:21;;;;;;;11.90;8.73;;;;;;;;;;5026488;28;20893;-91
2022/03/01 02:34:48;;;;;;;11.82;8.23;;;;;;;;;;5036726;28;20447;-91
2022/03/01 02:37:15;;;;;;;11.52;8.30;;;;;;;;;;5031122;28;20440;-91
2022/03/01 02:39:43;;;;;;;13.90;8.07;;;;;;;;;;5028793;28;20413;-91
2022/03/01 02:42:10;;;;;;;12.10;8.05;;;;;;;;;;5042620;28;20405;-90
2022/03/01 02:44:37;;;;;;;10.40;7.53;;;;;;;;;;5031117;28;20402;-91
2022/03/01 02:47:05;;;;;;;12.18;8.13;;;;;;;;;;5043715;28;20944;-91
2022/03/01 02:49:31;;;;;;;11.95;7.80;;;;;;;;;;5031675;28;20405;-92
2022/03/01 02:51:58;;;;;;;10.90;8.05;;;;;;;;;;5031519;28;20404;-91
2022/03/01 02:54:25;;;;;;;11.88;7.93;;;;;;;;;;5039508;28;20409;-90
2022/03/01 02:56:56;;;;;;;12.35;8.32;;;;;;;;;;5041064;28;20415;-92
2022/03/01 02:59:23;;;;;;;12.40;8.17;;;;;;;;;;5038897;28;20433;-92
2022/03/01 03:01:49;;;;;;;11.95;8.30;;;;;;;;;;5037883;28;20445;-91
2022/03/01 03:04:16;;;;;;;12.18;8.20;;;;;;;;;;5038259;28;20406;-91
2022/03/01 03:06:43;;;;;;;12.55;8.40;;;;;;;;;;5038495;28;20875;-90
2022/03/01 03:09:10;;;;;;;11.73;8.63;;;;;;;;;;5034062;28;20427;-90
2022/03/01 03:11:37;;;;;;;13.88;8.32;;;;;;;;;;5040509;28;20407;-91
2022/03/01 03:14:06;;;;;;;12.90;8.70;;;;;;;;;;5037086;28;20402;-90
2022/03/01 03:16:32;;;;;;;13.52;8.45;;;;;;;;;;5033763;28;20428;-90
2022/03/01 03:18:59;;;;;;;12.82;9.15;;;;;;;;;;5033521;28;20407;-91
2022/03/01 03:21:26;;;;;;;13.03;9.23;;;;;;;;;;5048807;28;20450;-92
2022/03/01 03:23:54;;;;;;;13.70;9.90;;;;;;;;;;5029025;28;20422;-92
2022/03/01 03:26:20;;;;;;;17.15;11.07;;;;;;;;;;5028889;28;20396;-91
2022/03/01 03:28:47;;;;;;;14.33;10.57;;;;;;;;;;5045138;28;20953;-91
2022/03/01 03:31:16;;;;;;;17.75;10.98;;;;;;;;;;5033744;28;20409;-92
2022/03/01 03:33:43;;;;;;;15.60;11.20;;;;;;;;;;5052594;28;20404;-92
2022/03/01 03:36:10;;;;;;;17.13;11.98;;;;;;;;;;5060277;28;20426;-91
2022/03/01 03:38:37;;;;;;;16.15;11.32;;;;;;;;;;5059205;28;20450;-91
2022/03/01 03:41:03;;;;;;;15.02;10.77;;;;;;;;;;5052508;28;20482;-90
2022/03/01 03:43:30;;;;;;;17.23;12.07;;;;;;;;;;5046897;28;20401;-91
2022/03/01 03:45:57;;;;;;;16.20;11.40;;;;;;;;;;5057025;28;20393;-91
2022/03/01 03:48:25;;;;;;;17.23;11.15;;;;;;;;;;5064296;28;20403;-91
2022/03/01 03:50:52;;;;;;;15.55;11.02;;;;;;;;;;5050495;28;21214;-91
2022/03/01 03:53:19;;;;;;;17.77;11.88;;;;;;;;;;5039004;28;20416;-91
2022/03/01 03:55:46;;;;;;;15.32;10.98;;;;;;;;;;5013111;28;21131;-91
2022/03/01 03:58:12;;;;;;;16.30;10.80;;;;;;;;;;5028864;28;20401;-92
2022/03/01 04:00:39;;;;;;;17.93;11.40;;;;;;;;;;5038959;28;20999;-91
2022/03/01 04:03:07;;;;;;;20.05;11.25;;;;;;;;;;5032622;28;20451;-91
2022/03/01 04:05:36;;;;;;;19.42;11.43;;;;;;;;;;5038241;28;20819;-90
2022/03/01 04:08:03;;;;;;;17.25;10.82;;;;;;;;;;5041068;28;20792;-91
2022/03/01 04:10:30;;;;;;;15.37;10.53;;;;;;;;;;5045951;28;20525;-91
2022/03/01 04:12:57;;;;;;;16.65;10.80;;;;;;;;;;5041183;28;20411;-91
2022/03/01 04:15:24;;;;;;;14.63;10.32;;;;;;;;;;5040396;28;20392;-91
2022/03/01 04:17:50;;;;;;;16.13;10.48;;;;;;;;;;5036381;28;20939;-92
2022/03/01 04:20:18;;;;;;;17.65;11.07;;;;;;;;;;5037999;28;20833;-92
2022/03/01 04:25:19;;;;;;;18.58;10.50;;;;;;;;;;5025657;28;20427;-84
2022/03/01 04:27:46;;;;;;;15.82;10.38;;;;;;;;;;5032882;28;20405;-84
2022/03/01 04:30:15;;;;;;;16.30;10.45;;;;;;;;;;5034257;28;20401;-83
2022/03/01 04:32:43;;;;;;;15.45;10.73;;;;;;;;;;5034834;28;20404;-83
2022/03/01 04:35:11;;;;;;;17.05;10.85;;;;;;;;;;5033942;28;20453;-83
2022/03/01 04:37:39;;;;;;;15.48;11.07;;;;;;;;;;5034948;28;20440;-83
2022/03/01 04:40:08;;;;;;;16.02;10.80;;;;;;;;;;5032508;28;20427;-83
2022/03/01 04:42:36;;;;;;;15.67;10.50;;;;;;;;;;5033766;28;20919;-83
2022/03/01 04:45:05;;;;;;;16.27;10.50;;;;;;;;;;5037312;28;20474;-84
2022/03/01 04:47:33;;;;;;;16.38;10.90;;;;;;;;;;5034161;28;20409;-83
2022/03/01 04:50:00;;;;;;;15.40;10.27;;;;;;;;;;5029680;28;20413;-83
2022/03/01 04:52:26;;;;;;;17.00;10.75;;;;;;;;;;5035458;28;20572;-82
2022/03/01 04:54:53;;;;;;;17.17;10.77;;;;;;;;;;5034193;28;20420;-83
2022/03/01 04:57:20;;;;;;;19.05;11.50;;;;;;;;;;5032377;28;20412;-81
2022/03/01 04:59:48;;;;;;;16.38;10.93;;;;;;;;;;5035446;28;20401;-83
2022/03/01 05:02:15;;;;;;;16.67;10.60;;;;;;;;;;5034260;28;20744;-83
2022/03/01 05:04:42;;;;;;;17.08;10.45;;;;;;;;;;5026497;28;20422;-83
2022/03/01 05:07:09;;;;;;;16.30;10.32;;;;;;;;;;5030290;28;20405;-83
2022/03/01 05:09:36;;;;;;;15.27;10.45;;;;;;;;;;5029288;28;20449;-83
2022/03/01 05:12:03;;;;;;;15.27;9.93;;;;;;;;;;5032941;28;20403;-83
2022/03/01 05:14:30;;;;;;;16.30;10.55;;;;;;;;;;5033903;28;20403;-83
2022/03/01 05:16:58;;;;;;;15.15;10.35;;;;;;;;;;5034149;28;20392;-83
2022/03/01 05:19:25;;;;;;;16.48;10.52;;;;;;;;;;5033946;28;20405;-83
2022/03/01 05:21:52;;;;;;;16.02;11.00;;;;;;;;;;5031923;28;20520;-83
2022/03/01 05:24:18;;;;;;;15.02;10.20;;;;;;;;;;5032078;28;20428;-83
2022/03/01 05:26:45;;;;;;;16.35;10.95;;;;;;;;;;5034220;28;20463;-83
2022/03/01 05:29:12;;;;;;;16.02;10.80;;;;;;;;;;5033702;28;20455;-83
2022/03/01 05:31:39;;;;;;;16.90;10.55;;;;;;;;;;5032165;28;20881;-83
2022/03/01 05:34:07;;;;;;;17.55;11.80;;;;;;;;;;5033320;28;20403;-81
2022/03/01 05:36:34;;;;;;;22.45;13.30;;;;;;;;;;5033319;28;20406;-83
2022/03/01 05:39:01;;;;;;;21.38;13.38;;;;;;;;;;5031926;28;20448;-84
2022/03/01 05:41:28;;;;;;;18.30;12.32;;;;;;;;;;5030682;28;20914;-81
2022/03/01 05:43:55;;;;;;;18.08;11.70;;;;;;;;;;5034606;28;20586;-81
2022/03/01 05:46:21;;;;;;;17.13;11.07;;;;;;;;;;5035084;28;20414;-83
2022/03/01 05:48:48;;;;;;;17.70;11.57;;;;;;;;;;5027007;28;20406;-83
2022/03/01 05:51:18;;;;;;;18.40;11.88;;;;;;;;;;5029493;28;20888;-83
2022/03/01 05:53:46;;;;;;;19.85;12.13;;;;;;;;;;5036969;28;20403;-82
2022/03/01 05:56:13;;;;;;;18.73;12.40;;;;;;;;;;5029899;28;20421;-83
2022/03/01 05:58:40;;;;;;;18.30;12.15;;;;;;;;;;5029545;28;20412;-83
2022/03/01 06:01:07;;;;;;;18.70;12.43;;;;;;;;;;5030181;28;20493;-83
2022/03/01 06:03:34;;;;;;;20.98;12.63;;;;;;;;;;5031383;28;20397;-83
2022/03/01 06:06:01;;;;;;;22.20;13.10;;;;;;;;;;5032031;28;20922;-83
2022/03/01 06:08:29;;;;;;;19.75;12.23;;;;;;;;;;5031552;28;20399;-82
2022/03/01 06:10:56;;;;;;;18.92;12.48;;;;;;;;;;5036763;28;20408;-83
2022/03/01 06:13:22;;;;;;;21.55;12.55;;;;;;;;;;5038219;28;20407;-83
2022/03/01 06:15:49;;;;;;;20.83;12.93;;;;;;;;;;5038706;28;20409;-83
2022/03/01 06:18:16;;;;;;;18.15;12.20;;;;;;;;;;5038047;28;20410;-82
2022/03/01 06:20:44;;;;;;;18.00;12.10;;;;;;;;;;5033765;28;20855;-82
2022/03/01 06:23:11;;;;;;;16.67;11.82;;;;;;;;;;5037913;28;20408;-83
2022/03/01 06:25:40;;;;;;;18.58;11.80;;;;;;;;;;5035018;28;20420;-83
2022/03/01 06:28:07;;;;;;;17.55;11.68;;;;;;;;;;5037485;28;20490;-82
2022/03/01 06:30:34;;;;;;;17.58;11.98;;;;;;;;;;5036717;28;20400;-83
2022/03/01 06:33:01;;;;;;;18.55;11.38;;;;;;;;;;5028713;28;20396;-82
2022/03/01 06:35:28;;;;;;;20.05;12.13;;;;;;;;;;5031579;28;20899;-82
2022/03/01 06:37:55;;;;;;;18.50;12.25;;;;;;;;;;5032455;28;20404;-82
2022/03/01 06:40:22;;;;;;;18.88;12.18;;;;;;;;;;5035225;28;20400;-81
2022/03/01 06:42:51;;;;;;;20.67;12.10;;;;;;;;;;5037431;28;20404;-82
2022/03/01 06:45:19;;;;;;;23.88;12.55;;;;;;;;;;5035277;28;20417;-82
2022/03/01 06:47:46;;;;;;;20.08;12.20;;;;;;;;;;5035236;28;20413;-81
2022/03/01 06:50:12;;;;;;;18.27;11.52;;;;;;;;;;5030657;28;20409;-82
2022/03/01 06:52:39;;;;;;;23.10;13.43;;;;;;;;;;5033365;28;20416;-81
2022/03/01 06:55:08;;;;;;;20.80;12.65;;;;;;;;;;5035677;28;20403;-82
2022/03/01 06:57:35;;;;;;;19.60;11.75;;;;;;;;;;5033373;28;20397;-81
2022/03/01 07:00:03;;;;;;;20.65;12.15;;;;;;;;;;5037190;28;20408;-81
2022/03/01 07:02:32;;;;;;;19.48;11.65;;;;;;;;;;5033863;28;20415;-81
2022/03/01 07:04:59;;;;;;;19.20;11.93;;;;;;;;;;5026759;28;20447;-82
2022/03/01 07:07:26;;;;;;;17.30;11.55;;;;;;;;;;5032780;28;20400;-83
2022/03/01 07:09:52;;;;;;;16.42;11.00;;;;;;;;;;5030094;28;20409;-82
2022/03/01 07:12:19;;;;;;;17.42;11.13;;;;;;;;;;5035130;28;20401;-83
2022/03/01 07:14:46;;;;;;;17.50;11.20;;;;;;;;;;5037467;28;20409;-83
2022/03/01 07:17:17;;;;;;;17.13;11.63;;;;;;;;;;5036976;28;20405;-83
2022/03/01 07:19:44;;;;;;;19.52;11.70;;;;;;;;;;5037087;28;20455;-83
2022/03/01 07:22:11;;;;;;;19.35;12.07;;;;;;;;;;5035256;28;20429;-82
2022/03/01 07:24:38;;;;;;;18.67;11.65;;;;;;;;;;5034445;28;20415;-81
2022/03/01 07:27:05;;;;;;;18.52;10.80;;;;;;;;;;5028889;28;20459;-81
2022/03/01 07:29:31;;;;;;;17.30;11.27;;;;;;;;;;5031447;28;20928;-82
2022/03/01 07:31:59;;;;;;;16.15;10.65;;;;;;;;;;5026241;28;20412;-82
2022/03/01 07:34:27;;;;;;;16.50;10.18;;;;;;;;;;5027435;28;20411;-81
2022/03/01 07:36:55;;;;;;;16.60;9.50;;;;;;;;;;5025365;28;20879;-82
2022/03/01 07:39:24;;;;;;;14.23;9.35;;;;;;;;;;5029362;28;20848;-81
2022/03/01 07:41:52;;;;;;;14.88;9.57;;;;;;;;;;5027889;28;20424;-82
2022/03/01 07:44:19;;;;;;;15.65;10.60;;;;;;;;;;5028739;28;20489;-82
2022/03/01 07:46:47;;;;;;;15.95;11.25;;;;;;;;;;5025535;28;20409;-81
2022/03/01 07:49:14;;;;;;;15.95;11.57;;;;;;;;;;5023496;28;20579;-83
2022/03/01 07:51:42;;;;;;;18.37;11.10;;;;;;;;;;5021330;28;20401;-83
2022/03/01 07:54:09;;;;;;;15.48;11.05;;;;;;;;;;5026806;28;20419;-83
2022/03/01 07:56:36;;;;;;;14.85;10.43;;;;;;;;;;5023678;28;20420;-83
2022/03/01 07:59:03;;;;;;;16.75;10.65;;;;;;;;;;5026222;28;20500;-83
2022/03/01 08:01:30;;;;;;;14.02;10.25;;;;;;;;;;5020044;28;20421;-83
2022/03/01 08:03:57;;;;;;;15.52;10.85;;;;;;;;;;5022914;28;20412;-83
2022/03/01 08:06:24;;;;;;;17.60;11.25;;;;;;;;;;5026128;28;20415;-83
2022/03/01 08:08:52;;;;;;;16.50;10.85;;;;;;;;;;5023909;28;20413;-83
2022/03/01 08:11:19;;;;;;;14.68;10.18;;;;;;;;;;5024024;28;20754;-83
2022/03/01 08:13:46;;;;;;;14.88;10.02;;;;;;;;;;5023951;28;20403;-83
2022/03/01 08:16:13;;;;;;;13.95;9.88;;;;;;;;;;5026381;28;20415;-82
2022/03/01 08:18:40;;;;;;;15.77;9.95;;;;;;;;;;5024459;28;20408;-83
2022/03/01 08:21:07;;;;;;;15.35;10.45;;;;;;;;;;5025592;28;20468;-83
2022/03/01 08:23:36;;;;;;;13.47;9.80;;;;;;;;;;5022317;28;20409;-83
2022/03/01 08:26:05;;;;;;;14.83;10.40;;;;;;;;;;5020991;28;20494;-83
2022/03/01 08:28:33;;;;;;;12.35;9.32;;;;;;;;;;5022574;28;20503;-83
2022/03/01 08:31:00;;;;;;;12.00;8.13;;;;;;;;;;5023712;28;20417;-84
2022/03/01 08:33:27;;;;;;;11.87;8.57;;;;;;;;;;5030711;28;20414;-83
2022/03/01 08:35:55;;;;;;;10.80;7.45;;;;;;;;;;5021509;28;20412;-83
2022/03/01 08:38:23;;;;;;;12.02;7.95;;;;;;;;;;5029485;28;20428;-84
2022/03/01 08:40:49;;;;;;;10.68;7.80;;;;;;;;;;5031131;28;20872;-84
2022/03/01 08:43:18;;;;;;;12.43;7.40;;;;;;;;;;5030127;28;20405;-84
2022/03/01 08:45:45;;;;;;;9.98;6.80;;;;;;;;;;5028707;28;20418;-83
2022/03/01 08:48:12;;;;;;;6.25;4.97;;;;;;;;;;5027510;28;20425;-81
2022/03/01 08:50:39;;;;;;;8.48;6.40;;;;;;;;;;5031778;28;20398;-82
2022/03/01 08:53:07;;;;;;;5.93;4.03;;;;;;;;;;5036876;28;20461;-81
2022/03/01 08:55:34;;;;;;;6.07;4.70;;;;;;;;;;5031221;28;20442;-81
2022/03/01 08:58:01;;;;;;;8.52;5.15;;;;;;;;;;5017878;28;20408;-80
2022/03/01 09:00:34;;;;;;;5.75;4.43;;;;;;;;;;5030113;28;20801;-81
2022/03/01 09:03:01;;;;;;;6.93;5.18;;;;;;;;;;5022468;28;20516;-81
2022/03/01 09:05:28;;;;;;;7.60;5.40;;;;;;;;;;5027525;28;20403;-81
2022/03/01 09:07:55;;;;;;;9.32;6.78;;;;;;;;;;5026750;28;20404;-80
2022/03/01 09:10:23;;;;;;;7.50;6.38;;;;;;;;;;5026490;28;20455;-81
2022/03/01 09:12:51;;;;;;;6.43;5.20;;;;;;;;;;5025663;28;20414;-83
2022/03/01 09:15:18;;;;;;;4.97;4.18;;;;;;;;;;5025857;28;20405;-83
2022/03/01 09:17:46;;;;;;;8.68;5.80;;;;;;;;;;5030438;28;20496;-83
2022/03/01 09:20:14;;;;;;;6.85;5.40;;;;;;;;;;5028928;28;20404;-83
2022/03/01 09:22:42;;;;;;;6.40;4.47;;;;;;;;;;5028086;28;20421;-83
2022/03/01 09:25:09;;;;;;;6.38;5.32;;;;;;;;;;5026199;28;20417;-83
2022/03/01 09:27:36;;;;;;;7.10;4.95;;;;;;;;;;5027019;28;20405;-83
2022/03/01 09:30:05;;;;;;;8.50;5.88;;;;;;;;;;5029874;28;20411;-83
2022/03/01 09:32:32;;;;;;;7.75;6.30;;;;;;;;;;5026780;28;20429;-83
2022/03/01 09:35:05;;;;;;;10.13;6.63;;;;;;;;;;5026178;28;20407;-83
2022/03/01 09:37:32;;;;;;;7.05;5.25;;;;;;;;;;5026991;28;20960;-83
2022/03/01 09:39:59;;;;;;;44.08;25.70;;;;;;;;;;5023341;28;20419;-83
2022/03/01 09:42:27;;;;;;;26.85;16.35;;;;;;;;;;5026893;28;20441;-84
2022/03/01 09:44:55;;;;;;;8.90;6.50;;;;;;;;;;5032859;28;20429;-83
2022/03/01 09:47:22;;;;;;;21.00;12.98;;;;;;;;;;5040685;28;20413;-84
2022/03/01 09:49:49;;;;;;;9.63;7.00;;;;;;;;;;5035666;28;20397;-83
2022/03/01 09:52:19;;;;;;;7.22;6.00;;;;;;;;;;5030375;28;20767;-81
2022/03/01 09:54:51;;;;;;;7.55;5.97;;;;;;;;;;5031250;28;20418;-81
2022/03/01 09:57:19;;;;;;;7.55;6.28;;;;;;;;;;5030533;28;20409;-80
2022/03/01 09:59:46;;;;;;;6.53;5.13;;;;;;;;;;5029960;28;20908;-83
2022/03/01 10:02:14;;;;;;;6.35;5.20;;;;;;;;;;5028332;28;20491;-80
2022/03/01 10:04:51;;;;;;;6.85;5.13;;;;;;;;;;5032221;28;20461;-80
2022/03/01 10:07:24;;;;;;;8.15;5.10;;;;;;;;;;5032607;28;20405;-81
2022/03/01 10:09:52;;;;;;;6.95;5.15;;;;;;;;;;5030923;28;21019;-81
2022/03/01 10:12:25;;;;;;;6.20;5.13;;;;;;;;;;5034558;28;20407;-82
2022/03/01 10:14:58;;;;;;;10.83;7.40;;;;;;;;;;5033840;28;21246;-82
2022/03/01 10:17:34;;;;;;;6.10;5.20;;;;;;;;;;5032190;28;20440;-83
2022/03/01 10:20:02;;;;;;;7.10;5.80;;;;;;;;;;5034504;28;20400;-84
2022/03/01 10:22:30;;;;;;;8.77;4.70;;;;;;;;;;5030509;28;20417;-81
2022/03/01 10:25:04;;;;;;;6.75;4.95;;;;;;;;;;5029311;28;20499;-83
2022/03/01 10:27:31;;;;;;;6.53;4.70;;;;;;;;;;5035137;28;20934;-82
2022/03/01 10:29:58;;;;;;;6.05;4.65;;;;;;;;;;5030934;28;20403;-81
2022/03/01 10:32:25;;;;;;;6.60;4.70;;;;;;;;;;5032694;28;20484;-81
2022/03/01 10:35:02;;;;;;;6.72;5.10;;;;;;;;;;5030681;28;20885;-82
2022/03/01 10:37:33;;;;;;;6.22;4.88;;;;;;;;;;5031688;28;20415;-82
2022/03/01 10:40:15;;;;;;;6.05;4.95;;;;;;;;;;5029757;28;20461;-81
2022/03/01 10:42:42;;;;;;;6.43;4.90;;;;;;;;;;5025147;28;20426;-82
2022/03/01 10:45:11;;;;;;;6.80;5.25;;;;;;;;;;5030009;28;20949;-82
2022/03/01 10:47:39;;;;;;;6.78;4.70;;;;;;;;;;5029507;28;20401;-84
2022/03/01 10:50:09;;;;;;;7.40;4.97;;;;;;;;;;5031902;28;20479;-83
2022/03/01 10:52:43;;;;;;;5.95;4.97;;;;;;;;;;5027325;28;20432;-81
2022/03/01 10:55:26;;;;;;;6.50;5.00;;;;;;;;;;5027110;28;20512;-81
2022/03/01 10:58:01;;;;;;;9.07;5.10;;;;;;;;;;5024521;28;20408;-81
2022/03/01 11:00:34;;;;;;;7.85;5.00;;;;;;;;;;5028987;28;20480;-80
2022/03/01 11:03:06;;;;;;;7.45;5.35;;;;;;;;;;5029071;28;20428;-80
2022/03/01 11:05:37;;;;;;;7.75;5.30;;;;;;;;;;5028233;28;20412;-81
2022/03/01 11:08:11;;;;;;;6.25;4.90;;;;;;;;;;5027977;28;20936;-81
2022/03/01 11:10:41;;;;;;;6.03;4.90;;;;;;;;;;5026033;28;20446;-80
2022/03/01 11:13:15;;;;;;;6.03;4.95;;;;;;;;;;5028026;28;20478;-81
2022/03/01 11:16:10;;;;;;;7.18;4.82;;;;;;;;;;5028970;28;20401;-81
2022/03/01 11:18:53;;;;;;;7.30;5.00;;;;;;;;;;5024266;28;20401;-83
2022/03/01 11:21:24;;;;;;;5.97;4.75;;;;;;;;;;5029261;28;20445;-83
2022/03/01 11:23:59;;;;;;;6.07;5.05;;;;;;;;;;5025680;28;20505;-81
2022/03/01 11:26:39;;;;;;;6.60;4.88;;;;;;;;;;5029149;28;20472;-81
2022/03/01 11:29:15;;;;;;;7.38;5.03;;;;;;;;;;5029589;28;20495;-81
2022/03/01 11:32:01;;;;;;;4.57;4.00;;;;;;;;;;5032230;28;20400;-81
2022/03/01 11:34:33;;;;;;;8.25;5.63;;;;;;;;;;5034001;28;20421;-81
2022/03/01 11:37:15;;;;;;;6.10;5.07;;;;;;;;;;5028915;28;20808;-80
2022/03/01 11:39:57;;;;;;;8.67;4.80;;;;;;;;;;5027073;28;20409;-81
2022/03/01 11:42:32;;;;;;;19.52;10.00;;;;;;;;;;5029726;28;20421;-81
2022/03/01 11:45:12;;;;;;;4.80;4.30;;;;;;;;;;5028532;28;20396;-82
2022/03/01 11:47:43;;;;;;;5.80;4.50;;;;;;;;;;5028129;28;20480;-83
2022/03/01 11:50:15;;;;;;;4.75;4.15;;;;;;;;;;5031275;28;20405;-83
2022/03/01 11:53:04;;;;;;;5.20;4.38;;;;;;;;;;5031204;28;20808;-83
2022/03/01 11:55:44;;;;;;;5.25;4.28;;;;;;;;;;5028749;28;20409;-83
2022/03/01 11:58:18;;;;;;;5.55;4.60;;;;;;;;;;5028215;28;20401;-84
2022/03/01 12:00:50;;;;;;;5.75;4.65;;;;;;;;;;5031145;28;20939;-83
2022/03/01 12:03:23;;;;;;;4.95;4.43;;;;;;;;;;5029655;28;20425;-84
2022/03/01 12:05:54;;;;;;;9.00;6.07;;;;;;;;;;5031142;28;20435;-83
2022/03/01 12:08:27;;;;;;;6.63;4.73;;;;;;;;;;5022230;28;20524;-81
2022/03/01 12:11:12;;;;;;;6.25;4.78;;;;;;;;;;5021654;28;20421;-81
2022/03/01 12:13:44;;;;;;;5.03;4.53;;;;;;;;;;5017094;28;20515;-81
2022/03/01 12:16:16;;;;;;;5.72;4.72;;;;;;;;;;5025505;28;20411;-81
2022/03/01 12:18:47;;;;;;;6.33;4.63;;;;;;;;;;5024434;28;20410;-82
2022/03/01 12:21:17;;;;;;;10.05;6.80;;;;;;;;;;5023597;28;20421;-81
2022/03/01 12:23:53;;;;;;;7.45;5.53;;;;;;;;;;5022260;28;20501;-82
2022/03/01 12:26:31;;;;;;;6.17;4.90;;;;;;;;;;5025288;28;20424;-82
2022/03/01 12:29:04;;;;;;;9.05;6.10;;;;;;;;;;5026989;28;20535;-81
2022/03/01 12:31:36;;;;;;;6.03;4.90;;;;;;;;;;5031062;28;20400;-82
2022/03/01 12:34:10;;;;;;;5.65;4.88;;;;;;;;;;5037824;28;20419;-82
2022/03/01 12:36:40;;;;;;;9.95;6.93;;;;;;;;;;5022825;28;20436;-82
2022/03/01 12:39:11;;;;;;;14.02;7.82;;;;;;;;;;5026497;28;20420;-82
2022/03/01 12:41:44;;;;;;;12.18;7.95;;;;;;;;;;5032346;28;20472;-82
2022/03/01 12:44:16;;;;;;;6.00;5.00;;;;;;;;;;5038266;28;20493;-81
2022/03/01 12:46:46;;;;;;;6.03;5.38;;;;;;;;;;5032023;28;20449;-81
2022/03/01 12:49:18;;;;;;;16.20;10.70;;;;;;;;;;5030881;28;20460;-81
2022/03/01 12:51:50;;;;;;;7.47;5.93;;;;;;;;;;5024654;28;20443;-82
2022/03/01 12:54:21;;;;;;;7.05;5.70;;;;;;;;;;5026201;28;20509;-82
2022/03/01 12:56:54;;;;;;;6.85;5.28;;;;;;;;;;5027252;28;20474;-82
2022/03/01 12:59:25;;;;;;;7.30;5.85;;;;;;;;;;5025163;28;20498;-83
2022/03/01 13:01:56;;;;;;;8.20;5.85;;;;;;;;;;5018850;28;20436;-83
2022/03/01 13:04:28;;;;;;;6.30;5.45;;;;;;;;;;5022687;28;21043;-85
2022/03/01 13:07:05;;;;;;;8.20;5.90;;;;;;;;;;5024943;28;20508;-78
2022/03/01 13:09:37;;;;;;;6.50;5.90;;;;;;;;;;5027600;28;20419;-83
2022/03/01 13:12:08;;;;;;;7.85;5.80;;;;;;;;;;5026136;28;20467;-83
2022/03/01 13:14:36;;;;;;;7.47;5.82;;;;;;;;;;5029779;28;20416;-83
2022/03/01 13:17:05;;;;;;;8.75;5.90;;;;;;;;;;5025948;28;20435;-84
2022/03/01 13:19:35;;;;;;;7.35;5.78;;;;;;;;;;5029012;28;20492;-83
2022/03/01 13:22:04;;;;;;;6.93;5.50;;;;;;;;;;5030114;28;20958;-84
2022/03/01 13:24:34;;;;;;;7.60;5.85;;;;;;;;;;5027205;28;20438;-83
2022/03/01 13:27:05;;;;;;;8.00;5.93;;;;;;;;;;5027949;28;20411;-83
2022/03/01 13:29:37;;;;;;;6.47;5.50;;;;;;;;;;5026483;28;20403;-83
2022/03/01 13:32:23;;;;;;;6.82;5.60;;;;;;;;;;5024264;28;20409;-83
2022/03/01 13:35:04;;;;;;;6.45;5.07;;;;;;;;;;5023942;28;20897;-86
2022/03/01 13:37:36;;;;;;;6.63;5.93;;;;;;;;;;5022752;28;20417;-83
2022/03/01 13:40:07;;;;;;;6.65;5.95;;;;;;;;;;5023111;28;20425;-83
2022/03/01 13:42:38;;;;;;;7.50;6.00;;;;;;;;;;5023977;28;20396;-82
2022/03/01 13:45:15;;;;;;;7.43;6.63;;;;;;;;;;5025181;28;20410;-81
2022/03/01 13:47:45;;;;;;;6.65;5.95;;;;;;;;;;5023688;28;20413;-84
2022/03/01 13:50:16;;;;;;;7.25;6.28;;;;;;;;;;5022412;28;20401;-82
2022/03/01 13:52:48;;;;;;;7.03;6.30;;;;;;;;;;5024937;28;20409;-81
2022/03/01 13:55:19;;;;;;;6.82;5.93;;;;;;;;;;5021932;28;20432;-82
2022/03/01 13:57:50;;;;;;;11.68;10.20;;;;;;;;;;5020444;28;20416;-81
2022/03/01 14:00:25;;;;;;;7.30;6.30;;;;;;;;;;5025562;28;20421;-83
2022/03/01 14:02:57;;;;;;;9.00;7.27;;;;;;;;;;5024814;28;20498;-83
2022/03/01 14:05:28;;;;;;;8.75;6.47;;;;;;;;;;5024908;28;20407;-83
2022/03/01 14:08:03;;;;;;;7.03;6.05;;;;;;;;;;5024546;28;20405;-84
2022/03/01 14:13:20;;;;;;;6.67;6.00;;;;;;;;;;5020649;28;20397;-85
2022/03/01 14:16:00;;;;;;;7.95;6.55;;;;;;;;;;5022069;28;20417;-84
2022/03/01 14:18:36;;;;;;;8.02;6.65;;;;;;;;;;5023059;28;20417;-81
2022/03/01 14:21:09;;;;;;;7.80;6.40;;;;;;;;;;5022482;28;20421;-85
2022/03/01 14:23:44;;;;;;;6.82;6.20;;;;;;;;;;5023220;28;20505;-82
2022/03/01 14:26:15;;;;;;;6.67;5.83;;;;;;;;;;5025744;28;20550;-82
2022/03/01 14:28:55;;;;;;;8.82;6.55;;;;;;;;;;5026903;28;20402;-82
2022/03/01 14:31:28;;;;;;;7.30;6.43;;;;;;;;;;5033712;28;20518;-83
2022/03/01 14:33:59;;;;;;;10.18;6.80;;;;;;;;;;5031485;28;20477;-85
2022/03/01 14:36:30;;;;;;;7.33;6.53;;;;;;;;;;5031327;28;20413;-83
2022/03/01 14:39:00;;;;;;;8.20;6.75;;;;;;;;;;5031563;28;20486;-84
2022/03/01 14:41:30;;;;;;;7.28;6.57;;;;;;;;;;5035585;28;20429;-83
2022/03/01 14:44:00;;;;;;;7.82;7.00;;;;;;;;;;5030943;28;20956;-85
2022/03/01 14:46:34;;;;;;;7.72;6.38;;;;;;;;;;5031546;28;20405;-87
2022/03/01 14:49:22;;;;;;;7.47;5.80;;;;;;;;;;5028408;28;20404;-86